Time;durP1;ratioP1;P1;durP2;ratioP2;P2;SDS_P1;SDS_P2;PMS_P1;PMS_P2;Temp;Humidity;BMP_temperature;BMP_pressure;BME280_temperature;BME280_humidity;BME280_pressure;Samples;Min_cycle;Max_cycle;Signal;HPM_P1;HPM_P2
2022/07/23 00:01:41;;;;;;;7.15;5.05;;;;;;;27.24;45.32;99793.81;4445044;32;33391;-87
2022/07/23 00:04:09;;;;;;;7.37;5.30;;;;;;;27.21;45.49;99794.19;4457017;32;33302;-87
2022/07/23 00:06:38;;;;;;;5.40;4.85;;;;;;;27.27;45.00;99788.91;4468047;32;33457;-87
2022/07/23 00:09:05;;;;;;;5.07;4.60;;;;;;;27.15;45.35;99790.28;4460051;32;34399;-88
2022/07/23 00:11:34;;;;;;;8.98;4.95;;;;;;;27.19;45.02;99786.22;4457852;32;33544;-87
2022/07/23 00:14:03;;;;;;;6.40;4.93;;;;;;;27.10;45.25;99794.53;4443537;32;32240;-87
2022/07/23 00:16:30;;;;;;;5.87;4.75;;;;;;;27.09;45.01;99784.72;4456863;32;33659;-86
2022/07/23 00:19:02;;;;;;;7.05;4.85;;;;;;;27.08;44.81;99789.31;4460687;32;33641;-86
2022/07/23 00:21:31;;;;;;;5.75;4.93;;;;;;;27.05;44.83;99787.75;4458362;32;32316;-87
2022/07/23 00:23:58;;;;;;;6.72;4.37;;;;;;;26.99;44.76;99784.88;4449166;32;33154;-87
2022/07/23 00:26:26;;;;;;;7.78;4.75;;;;;;;26.84;44.97;99792.03;4457136;32;33517;-87
2022/07/23 00:28:55;;;;;;;7.15;4.62;;;;;;;26.83;44.61;99784.94;4471019;32;33295;-87
2022/07/23 00:31:23;;;;;;;6.30;4.30;;;;;;;26.90;44.26;99788.63;4443524;32;34011;-86
2022/07/23 00:33:52;;;;;;;8.23;4.28;;;;;;;26.89;44.05;99786.94;4457798;32;33080;-86
2022/07/23 00:36:20;;;;;;;5.93;4.20;;;;;;;26.87;43.85;99797.09;4469728;32;33997;-86
2022/07/23 00:38:48;;;;;;;11.38;4.57;;;;;;;26.80;44.02;99789.66;4442876;32;34098;-88
2022/07/23 00:41:18;;;;;;;7.60;4.47;;;;;;;26.76;44.39;99795.59;4456798;32;33512;-88
2022/07/23 00:43:48;;;;;;;6.32;4.60;;;;;;;26.79;44.34;99792.56;4459694;32;33006;-87
2022/07/23 00:46:21;;;;;;;6.12;4.35;;;;;;;26.79;44.33;99798.81;4459516;32;33896;-88
2022/07/23 00:48:50;;;;;;;9.15;4.65;;;;;;;26.69;44.68;99803.56;4459137;32;33300;-88
2022/07/23 00:51:19;;;;;;;8.50;4.87;;;;;;;26.46;45.65;99799.84;4451179;32;32829;-88
2022/07/23 00:53:48;;;;;;;6.07;4.97;;;;;;;26.48;45.00;99797.81;4452284;32;33195;-88
2022/07/23 00:56:16;;;;;;;4.85;4.35;;;;;;;26.32;45.24;99790.50;4444836;32;33393;-88
2022/07/23 00:58:44;;;;;;;9.30;4.47;;;;;;;26.22;45.39;99787.97;4431393;32;33314;-88
2022/07/23 01:01:13;;;;;;;6.90;4.35;;;;;;;26.30;45.60;99790.69;4433239;32;33433;-88
2022/07/23 01:03:42;;;;;;;4.45;4.05;;;;;;;26.37;45.63;99800.84;4447565;32;33954;-87
2022/07/23 01:06:10;;;;;;;6.28;4.05;;;;;;;26.54;44.94;99783.62;4434476;32;33968;-87
2022/07/23 01:08:38;;;;;;;5.20;4.03;;;;;;;26.45;45.10;99790.03;4444065;32;32471;-87
2022/07/23 01:11:07;;;;;;;9.43;5.10;;;;;;;26.33;44.81;99789.50;4431676;32;32781;-86
2022/07/23 01:13:35;;;;;;;6.30;4.37;;;;;;;26.29;45.46;99794.38;4445145;32;33302;-86
2022/07/23 01:16:03;;;;;;;5.72;4.40;;;;;;;26.34;45.58;99795.75;4471236;32;33932;-86
2022/07/23 01:18:31;;;;;;;5.43;4.20;;;;;;;26.35;45.50;99792.00;4459388;32;33925;-86
2022/07/23 01:20:58;;;;;;;6.82;4.05;;;;;;;26.09;45.91;99787.59;4445582;32;33873;-86
2022/07/23 01:23:28;;;;;;;6.60;4.70;;;;;;;26.35;45.26;99795.59;4470126;32;33387;-87
2022/07/23 01:25:57;;;;;;;5.50;4.43;;;;;;;26.24;45.63;99783.22;4445179;32;32732;-86
2022/07/23 01:28:35;;;;;;;6.32;4.82;;;;;;;26.15;45.93;99789.63;4458722;32;34392;-87
2022/07/23 01:31:04;;;;;;;9.38;4.40;;;;;;;26.18;45.99;99789.31;4435164;32;33727;-86
2022/07/23 01:33:33;;;;;;;5.75;4.45;;;;;;;25.83;46.58;99785.03;4445678;32;33510;-86
2022/07/23 01:36:01;;;;;;;4.47;4.07;;;;;;;25.55;46.58;99789.81;4461944;32;33939;-86
2022/07/23 01:38:29;;;;;;;4.70;4.18;;;;;;;25.88;46.05;99789.97;4457271;32;32980;-86
2022/07/23 01:40:57;;;;;;;5.87;4.18;;;;;;;25.96;46.15;99788.09;4443206;32;33094;-86
2022/07/23 01:43:26;;;;;;;6.00;4.22;;;;;;;25.83;47.29;99781.47;4435451;32;32269;-86
2022/07/23 01:45:55;;;;;;;5.10;4.60;;;;;;;25.95;46.96;99793.66;4457546;32;34229;-86
2022/07/23 01:48:24;;;;;;;5.70;4.62;;;;;;;25.87;46.58;99786.38;4460331;32;32811;-86
2022/07/23 01:50:58;;;;;;;5.90;5.00;;;;;;;25.99;46.13;99793.19;4439349;32;32693;-86
2022/07/23 01:53:26;;;;;;;5.28;4.28;;;;;;;25.98;46.06;99787.94;4444104;32;32370;-86
2022/07/23 01:55:54;;;;;;;8.93;4.65;;;;;;;26.04;46.17;99785.41;4457902;32;33571;-87
2022/07/23 01:58:22;;;;;;;8.07;4.80;;;;;;;25.97;46.46;99786.22;4457330;32;32762;-86
2022/07/23 02:00:50;;;;;;;7.30;5.55;;;;;;;25.96;46.71;99789.94;4455962;32;33381;-88
2022/07/23 02:03:19;;;;;;;10.10;5.10;;;;;;;25.95;46.61;99785.56;4443351;32;33777;-87
2022/07/23 02:05:48;;;;;;;8.75;5.32;;;;;;;25.99;46.18;99784.22;4470553;32;35157;-87
2022/07/23 02:08:16;;;;;;;6.82;5.40;;;;;;;25.95;46.19;99780.16;4442477;32;33627;-87
2022/07/23 02:10:45;;;;;;;7.37;4.78;;;;;;;25.96;46.22;99782.69;4456994;32;33648;-87
2022/07/23 02:13:14;;;;;;;7.90;5.85;;;;;;;25.85;46.71;99776.75;4469706;32;33527;-86
2022/07/23 02:15:48;;;;;;;7.18;4.93;;;;;;;25.85;46.67;99785.72;4445643;32;34536;-86
2022/07/23 02:18:16;;;;;;;6.10;4.60;;;;;;;25.79;46.95;99781.81;4444023;32;32162;-87
2022/07/23 02:20:44;;;;;;;7.32;5.12;;;;;;;25.84;46.70;99781.31;4443983;32;33974;-87
2022/07/23 02:23:16;;;;;;;6.12;5.18;;;;;;;25.78;46.91;99779.28;4457463;32;32947;-87
2022/07/23 02:25:44;;;;;;;6.75;5.50;;;;;;;25.70;47.38;99785.47;4457368;32;34609;-87
2022/07/23 02:28:12;;;;;;;6.72;5.22;;;;;;;25.62;48.10;99785.44;4465293;32;33940;-87
2022/07/23 02:30:41;;;;;;;6.03;5.07;;;;;;;25.70;47.92;99788.19;4451624;32;33543;-87
2022/07/23 02:33:10;;;;;;;5.62;5.05;;;;;;;25.73;47.54;99793.25;4461069;32;33365;-86
2022/07/23 02:35:39;;;;;;;8.30;5.12;;;;;;;25.66;47.68;99791.38;4461670;32;34710;-87
2022/07/23 02:38:07;;;;;;;11.00;5.20;;;;;;;25.46;48.26;99788.94;4446892;32;32544;-88
2022/07/23 02:40:37;;;;;;;5.40;4.60;;;;;;;25.42;48.39;99794.84;4459967;32;33699;-87
2022/07/23 02:43:04;;;;;;;5.40;4.82;;;;;;;25.42;48.65;99794.84;4447699;32;32759;-88
2022/07/23 02:45:32;;;;;;;6.28;4.93;;;;;;;25.37;48.88;99791.78;4459722;32;32535;-88
2022/07/23 02:48:00;;;;;;;8.95;4.80;;;;;;;25.31;48.67;99793.28;4434266;32;32707;-87
2022/07/23 02:50:29;;;;;;;9.40;5.72;;;;;;;25.38;48.65;99793.47;4459037;32;33733;-89
2022/07/23 02:52:57;;;;;;;7.10;5.18;;;;;;;25.37;48.81;99791.78;4463592;32;33530;-89
2022/07/23 02:55:25;;;;;;;6.65;4.62;;;;;;;25.38;48.40;99790.75;4459258;32;33777;-88
2022/07/23 02:57:54;;;;;;;8.07;4.30;;;;;;;25.41;47.78;99787.75;4447344;32;34765;-88
2022/07/23 03:00:24;;;;;;;6.25;4.60;;;;;;;25.40;47.49;99789.59;4445798;32;33701;-89
2022/07/23 03:02:52;;;;;;;12.02;5.35;;;;;;;25.28;48.15;99783.62;4446722;32;32316;-89
2022/07/23 03:05:20;;;;;;;6.55;4.40;;;;;;;25.27;48.64;99781.94;4433961;32;32880;-89
2022/07/23 03:07:48;;;;;;;10.35;5.22;;;;;;;25.20;48.94;99780.87;4446889;32;32635;-88
2022/07/23 03:10:16;;;;;;;7.00;5.00;;;;;;;25.19;49.07;99783.75;4460311;32;33882;-87
2022/07/23 03:12:44;;;;;;;5.22;4.72;;;;;;;25.17;49.42;99783.91;4446078;32;32364;-88
2022/07/23 03:15:13;;;;;;;6.07;4.90;;;;;;;25.21;49.04;99787.13;4435458;32;32833;-88
2022/07/23 03:17:41;;;;;;;7.75;5.30;;;;;;;25.17;48.54;99781.22;4445689;32;33631;-87
2022/07/23 03:20:09;;;;;;;11.30;4.85;;;;;;;25.14;48.74;99786.94;4433771;32;34059;-88
2022/07/23 03:22:38;;;;;;;6.15;5.37;;;;;;;25.15;48.76;99791.31;4455751;32;32368;-87
2022/07/23 03:25:08;;;;;;;6.03;5.40;;;;;;;25.11;49.03;99787.25;4452010;32;33972;-87
2022/07/23 03:27:36;;;;;;;12.37;5.60;;;;;;;25.06;49.44;99777.91;4452248;32;33137;-87
2022/07/23 03:30:05;;;;;;;13.80;5.28;;;;;;;25.14;49.07;99784.22;4444532;32;33461;-87
2022/07/23 03:32:34;;;;;;;6.87;5.60;;;;;;;25.11;49.08;99779.13;4440485;32;32114;-87
2022/07/23 03:35:03;;;;;;;9.38;5.43;;;;;;;25.12;49.30;99783.56;4456908;32;33369;-87
2022/07/23 03:37:36;;;;;;;8.13;4.95;;;;;;;25.17;49.17;99775.81;4467890;32;33854;-87
2022/07/23 03:40:05;;;;;;;9.15;4.87;;;;;;;25.06;49.39;99781.44;4435046;32;32263;-88
2022/07/23 03:42:33;;;;;;;8.52;4.80;;;;;;;25.09;49.27;99786.56;4431343;32;31986;-88
2022/07/23 03:45:04;;;;;;;5.53;4.72;;;;;;;25.22;48.56;99789.69;4446986;32;32708;-87
2022/07/23 03:47:36;;;;;;;7.00;4.65;;;;;;;25.38;48.36;99790.75;4459399;32;33609;-87
2022/07/23 03:50:04;;;;;;;6.93;5.10;;;;;;;25.29;49.00;99793.41;4443917;32;32704;-87
2022/07/23 03:52:33;;;;;;;9.20;4.95;;;;;;;25.45;48.51;99781.00;4458457;32;33449;-87
2022/07/23 03:55:03;;;;;;;6.25;5.50;;;;;;;25.42;48.86;99797.53;4458107;32;33991;-88
2022/07/23 03:57:32;;;;;;;9.05;4.97;;;;;;;25.49;48.68;99796.75;4457860;32;33336;-87
2022/07/23 04:00:00;;;;;;;6.35;4.87;;;;;;;25.52;48.96;99792.84;4419969;32;31897;-87
2022/07/23 04:02:29;;;;;;;5.78;4.87;;;;;;;25.62;49.22;99788.13;4457179;32;33019;-88
2022/07/23 04:04:59;;;;;;;6.28;4.65;;;;;;;25.84;48.90;99788.59;4458486;32;32854;-88
2022/07/23 04:07:27;;;;;;;9.60;4.68;;;;;;;25.82;48.82;99791.44;4471339;32;33381;-87
2022/07/23 04:09:56;;;;;;;13.30;6.18;;;;;;;25.97;48.13;99791.62;4474159;31;33551;-87
2022/07/23 04:12:24;;;;;;;7.15;5.03;;;;;;;26.03;48.19;99793.69;4459538;32;33090;-87
2022/07/23 04:14:53;;;;;;;6.60;4.95;;;;;;;26.12;47.75;99797.28;4434017;32;35145;-87
2022/07/23 04:17:21;;;;;;;7.40;5.35;;;;;;;26.29;47.32;99802.50;4457573;32;33946;-88
2022/07/23 04:19:50;;;;;;;6.03;5.12;;;;;;;26.28;48.55;99806.22;4443962;32;34991;-88
2022/07/23 04:22:19;;;;;;;10.52;5.20;;;;;;;26.51;47.88;99797.47;4459884;32;33212;-88
2022/07/23 04:24:49;;;;;;;8.40;5.50;;;;;;;26.39;47.94;99798.78;4460835;32;33710;-89
2022/07/23 04:27:18;;;;;;;10.18;5.15;;;;;;;26.36;47.90;99802.69;4459345;32;33388;-88
2022/07/23 04:29:47;;;;;;;6.53;4.75;;;;;;;26.44;47.31;99807.28;4445156;32;33803;-87
2022/07/23 04:32:29;;;;;;;6.05;5.00;;;;;;;26.58;46.66;99803.91;4458875;32;33449;-87
2022/07/23 04:34:58;;;;;;;8.07;5.05;;;;;;;26.75;46.53;99805.59;4444003;32;33746;-88
2022/07/23 04:37:25;;;;;;;8.13;5.05;;;;;;;26.85;45.12;99802.69;4460186;32;34015;-88
2022/07/23 04:39:53;;;;;;;6.12;5.03;;;;;;;26.89;44.75;99811.34;4455931;32;33406;-88
2022/07/23 04:42:24;;;;;;;6.30;5.18;;;;;;;26.75;46.24;99805.59;4446033;32;32506;-86
2022/07/23 04:44:51;;;;;;;10.02;5.00;;;;;;;26.73;46.82;99806.75;4444953;32;33931;-86
2022/07/23 04:47:19;;;;;;;8.20;4.68;;;;;;;26.78;46.99;99802.53;4457846;32;34487;-86
2022/07/23 04:49:50;;;;;;;5.93;4.55;;;;;;;26.63;46.96;99812.34;4450456;32;35212;-86
2022/07/23 04:52:18;;;;;;;7.97;4.90;;;;;;;26.67;47.39;99819.13;4446961;32;32966;-86
2022/07/23 04:54:46;;;;;;;6.93;5.47;;;;;;;26.67;47.19;99813.72;4460878;32;34293;-87
2022/07/23 04:57:14;;;;;;;8.27;4.97;;;;;;;26.88;46.70;99809.66;4446592;32;32956;-87
2022/07/23 04:59:42;;;;;;;8.75;5.18;;;;;;;27.12;45.44;99798.78;4458151;32;32376;-87
2022/07/23 05:02:09;;;;;;;8.80;4.53;;;;;;;27.22;44.53;99802.13;4446831;32;32640;-86
2022/07/23 05:04:39;;;;;;;6.25;5.32;;;;;;;27.41;42.82;99810.87;4461206;32;32302;-86
2022/07/23 05:07:08;;;;;;;8.65;5.78;;;;;;;27.63;42.08;99804.69;4459340;32;33769;-86
2022/07/23 05:09:40;;;;;;;5.75;5.00;;;;;;;27.67;42.60;99800.59;4460510;32;31972;-86
2022/07/23 05:12:11;;;;;;;8.93;4.93;;;;;;;27.66;44.18;99808.91;4445531;32;33964;-86
2022/07/23 05:14:41;;;;;;;6.75;5.03;;;;;;;27.80;43.57;99798.19;4446363;32;33773;-86
2022/07/23 05:17:09;;;;;;;10.52;4.93;;;;;;;27.84;43.40;99792.41;4461071;32;34191;-86
2022/07/23 05:19:37;;;;;;;7.00;4.80;;;;;;;28.08;43.26;99789.53;4461704;32;32586;-86
2022/07/23 05:22:06;;;;;;;5.70;5.03;;;;;;;28.02;43.11;99791.09;4449397;32;33001;-89
2022/07/23 05:24:35;;;;;;;7.57;4.53;;;;;;;28.21;43.00;99797.09;4455212;32;33427;-88
2022/07/23 05:27:06;;;;;;;7.68;6.07;;;;;;;28.53;41.63;99793.28;4433645;32;33699;-88
2022/07/23 05:29:37;;;;;;;10.77;5.55;;;;;;;28.64;42.45;99792.84;4461491;32;33777;-87
2022/07/23 05:32:06;;;;;;;7.22;5.00;;;;;;;28.90;43.59;99802.44;4460194;32;33608;-87
2022/07/23 05:34:38;;;;;;;4.95;4.53;;;;;;;29.03;44.57;99802.69;4445101;32;34075;-89
2022/07/23 05:37:06;;;;;;;7.72;4.95;;;;;;;29.04;42.84;99794.34;4462129;32;32645;-89
2022/07/23 05:39:34;;;;;;;5.55;4.82;;;;;;;29.17;39.16;99788.25;4449029;32;33187;-89
2022/07/23 05:42:07;;;;;;;8.95;4.45;;;;;;;29.18;38.31;99797.25;4444691;32;32720;-89
2022/07/23 05:44:36;;;;;;;5.93;4.20;;;;;;;29.51;39.09;99789.53;4464201;32;34882;-89
2022/07/23 05:47:05;;;;;;;5.32;4.75;;;;;;;29.72;37.76;99788.78;4448675;32;33268;-89
2022/07/23 05:49:38;;;;;;;7.43;4.10;;;;;;;29.96;36.97;99791.16;4464183;32;34551;-89
2022/07/23 05:52:09;;;;;;;10.52;4.90;;;;;;;29.94;36.93;99786.94;4460692;32;32961;-89
2022/07/23 05:54:39;;;;;;;7.50;4.25;;;;;;;30.32;35.89;99785.69;4447551;32;33809;-87
2022/07/23 05:57:12;;;;;;;8.05;4.70;;;;;;;30.39;36.53;99782.22;4447085;32;33463;-85
2022/07/23 05:59:42;;;;;;;7.80;4.20;;;;;;;30.51;36.83;99789.63;4438528;32;32708;-85
2022/07/23 06:02:11;;;;;;;7.05;4.70;;;;;;;30.71;38.51;99794.44;4456060;32;32751;-85
2022/07/23 06:04:42;;;;;;;6.18;4.40;;;;;;;30.74;36.22;99789.44;4463337;32;32932;-86
2022/07/23 06:07:13;;;;;;;7.57;4.53;;;;;;;30.82;36.52;99791.19;4459709;32;33783;-85
2022/07/23 06:09:44;;;;;;;7.43;4.57;;;;;;;30.80;35.24;99785.91;4467273;32;31061;-88
2022/07/23 06:12:13;;;;;;;4.47;4.07;;;;;;;31.04;34.31;99786.50;4453405;32;31356;-88
2022/07/23 06:14:41;;;;;;;6.68;4.70;;;;;;;31.24;34.81;99776.56;4446157;32;36403;-88
2022/07/23 06:17:15;;;;;;;10.27;4.00;;;;;;;31.45;32.68;99774.81;4476465;31;32213;-89
2022/07/23 06:19:45;;;;;;;7.87;4.85;;;;;;;31.45;32.48;99766.63;4460340;32;33417;-88
2022/07/23 06:22:20;;;;;;;11.10;4.03;;;;;;;31.67;32.10;99770.03;4448748;32;32269;-89
2022/07/23 06:24:51;;;;;;;5.28;4.53;;;;;;;31.57;31.17;99768.56;4445311;32;32342;-88
2022/07/23 06:27:20;;;;;;;6.60;3.85;;;;;;;31.75;31.29;99767.97;4448377;32;33823;-88
2022/07/23 06:29:54;;;;;;;7.22;4.37;;;;;;;31.70;30.68;99764.19;4449504;32;33659;-88
2022/07/23 06:32:25;;;;;;;5.77;4.13;;;;;;;31.60;30.67;99770.03;4474000;31;33158;-89
2022/07/23 06:34:59;;;;;;;7.15;4.20;;;;;;;31.74;30.66;99765.47;4450736;32;33791;-88
2022/07/23 06:37:28;;;;;;;6.37;4.25;;;;;;;31.98;30.40;99762.19;4462039;32;35388;-88
2022/07/23 06:39:58;;;;;;;14.30;4.90;;;;;;;32.23;29.23;99754.22;4450337;32;33340;-88
2022/07/23 06:42:28;;;;;;;7.65;4.47;;;;;;;32.21;29.97;99753.62;4465210;32;32265;-88
2022/07/23 06:44:59;;;;;;;8.50;4.12;;;;;;;32.14;29.93;99755.47;4449605;32;33363;-88
2022/07/23 06:47:30;;;;;;;5.18;4.03;;;;;;;32.64;30.12;99750.50;4462569;32;36168;-85
2022/07/23 06:50:01;;;;;;;6.68;4.40;;;;;;;32.88;29.13;99760.78;4460854;32;31586;-86
2022/07/23 06:52:31;;;;;;;6.97;3.95;;;;;;;32.86;29.22;99760.16;4457549;32;34085;-85
2022/07/23 06:55:01;;;;;;;7.43;3.97;;;;;;;32.95;29.62;99759.94;4461959;32;32742;-85
2022/07/23 07:00:14;;;;;;;4.50;3.80;;;;;;;32.92;29.28;99757.66;4448097;32;32882;-87
2022/07/23 07:02:46;;;;;;;7.87;4.25;;;;;;;33.26;30.49;99751.88;4478652;31;32291;-88
2022/07/23 07:05:16;;;;;;;8.20;4.68;;;;;;;33.27;30.89;99753.53;4462143;32;33853;-88
2022/07/23 07:07:45;;;;;;;5.32;4.22;;;;;;;33.69;28.87;99747.72;4461497;32;34024;-87
2022/07/23 07:10:30;;;;;;;7.82;4.65;;;;;;;34.00;28.73;99749.69;4465230;32;34193;-88
2022/07/23 07:12:59;;;;;;;6.18;4.45;;;;;;;34.35;28.58;99747.31;4447810;32;32478;-87
2022/07/23 07:15:34;;;;;;;7.25;5.10;;;;;;;34.24;28.46;99739.81;4449205;32;32955;-87
2022/07/23 07:18:03;;;;;;;7.72;4.68;;;;;;;34.52;28.39;99736.66;4463129;32;32609;-88
2022/07/23 07:20:31;;;;;;;11.80;4.57;;;;;;;34.62;27.85;99737.84;4455864;32;32342;-86
2022/07/23 07:22:59;;;;;;;7.93;4.25;;;;;;;34.95;27.01;99735.81;4461398;32;33754;-86
2022/07/23 07:25:28;;;;;;;5.03;4.40;;;;;;;34.94;27.22;99732.22;4448211;32;34293;-85
2022/07/23 07:27:57;;;;;;;6.25;3.78;;;;;;;34.81;27.34;99726.91;4454757;32;33298;-86
2022/07/23 07:30:36;;;;;;;6.72;4.35;;;;;;;34.88;27.66;99727.66;4456520;32;34468;-86
2022/07/23 07:33:08;;;;;;;8.90;4.15;;;;;;;34.71;27.94;99729.31;4461311;32;32160;-85
2022/07/23 07:35:40;;;;;;;5.90;4.18;;;;;;;34.76;27.06;99737.72;4476206;31;33649;-85
2022/07/23 07:38:09;;;;;;;8.98;4.05;;;;;;;35.12;26.39;99728.69;4464335;32;32844;-85
2022/07/23 07:40:44;;;;;;;7.35;4.15;;;;;;;35.56;25.71;99726.69;4467102;32;33040;-84
2022/07/23 07:43:13;;;;;;;10.93;4.45;;;;;;;35.17;26.06;99726.09;4448024;32;34529;-85
2022/07/23 07:45:42;;;;;;;5.53;3.97;;;;;;;35.56;25.54;99722.06;4463259;32;33590;-84
2022/07/23 07:48:11;;;;;;;16.40;4.78;;;;;;;36.05;25.51;99719.25;4465189;32;34310;-86
2022/07/23 07:50:41;;;;;;;11.65;4.12;;;;;;;36.04;25.57;99717.59;4450520;32;33149;-86
2022/07/23 07:53:09;;;;;;;11.50;4.22;;;;;;;36.17;25.88;99718.19;4462368;32;32928;-84
2022/07/23 07:55:41;;;;;;;7.45;3.67;;;;;;;36.30;25.97;99714.38;4454739;32;33757;-84
2022/07/23 07:58:20;;;;;;;7.60;3.60;;;;;;;36.04;24.86;99714.84;4475654;31;33892;-85
2022/07/23 08:00:51;;;;;;;5.37;3.33;;;;;;;36.31;24.64;99717.97;4459864;32;33382;-85
2022/07/23 08:03:20;;;;;;;8.02;3.65;;;;;;;36.70;23.43;99711.00;4448404;32;33412;-85
2022/07/23 08:05:50;;;;;;;6.90;3.30;;;;;;;36.95;23.08;99718.16;4446658;32;33577;-85
2022/07/23 08:08:23;;;;;;;6.43;4.12;;;;;;;37.06;23.51;99720.06;4474207;31;34119;-85
2022/07/23 08:10:53;;;;;;;7.22;3.70;;;;;;;37.30;24.20;99710.66;4454994;32;33845;-85
2022/07/23 08:13:25;;;;;;;6.20;4.18;;;;;;;37.36;22.78;99712.44;4448725;32;33023;-84
2022/07/23 08:16:01;;;;;;;6.07;3.78;;;;;;;37.35;23.15;99713.50;4475082;31;34504;-85
2022/07/23 08:18:30;;;;;;;6.43;3.72;;;;;;;37.37;22.88;99716.03;4468159;32;33719;-85
2022/07/23 08:21:01;;;;;;;5.97;3.35;;;;;;;37.99;22.06;99712.59;4461464;32;34152;-85
2022/07/23 08:23:29;;;;;;;9.18;3.60;;;;;;;37.75;21.57;99712.69;4461958;32;33116;-85
2022/07/23 08:25:59;;;;;;;5.43;3.62;;;;;;;37.47;23.49;99721.78;4463008;32;33747;-84
2022/07/23 08:28:29;;;;;;;9.70;3.80;;;;;;;37.80;23.22;99715.53;4460216;32;35213;-85
2022/07/23 08:30:58;;;;;;;8.75;3.55;;;;;;;37.40;22.29;99710.06;4445298;32;32898;-85
2022/07/23 08:33:28;;;;;;;5.10;3.47;;;;;;;37.62;22.45;99712.97;4462412;32;32676;-84
2022/07/23 08:36:07;;;;;;;5.45;3.40;;;;;;;37.95;21.34;99717.75;4459367;32;32998;-85
2022/07/23 08:38:36;;;;;;;11.77;4.05;;;;;;;37.86;22.35;99717.31;4444883;32;33619;-85
2022/07/23 08:41:07;;;;;;;5.72;4.00;;;;;;;37.33;22.03;99720.38;4464497;32;34918;-85
2022/07/23 08:43:36;;;;;;;8.57;3.45;;;;;;;38.31;22.03;99712.88;4461215;32;32603;-85
2022/07/23 08:46:05;;;;;;;7.12;4.12;;;;;;;38.18;21.13;99722.31;4456352;32;33691;-85
2022/07/23 08:48:36;;;;;;;6.18;3.75;;;;;;;37.94;21.00;99709.75;4450031;32;32708;-85
2022/07/23 08:51:07;;;;;;;5.72;3.53;;;;;;;38.02;21.93;99712.06;4461828;32;33442;-85
2022/07/23 08:53:37;;;;;;;8.35;3.97;;;;;;;38.42;21.33;99715.56;4437598;32;33077;-84
2022/07/23 08:56:06;;;;;;;6.75;3.97;;;;;;;38.30;21.52;99714.78;4460833;32;32978;-84
2022/07/23 08:58:38;;;;;;;;;;;;;;;38.39;21.28;99712.47;4460079;32;33624;-84
2022/07/23 09:01:08;;;;;;;11.63;4.50;;;;;;;38.78;21.23;99716.12;4446490;32;33829;-84
2022/07/23 09:03:40;;;;;;;8.30;5.00;;;;;;;38.40;21.61;99703.91;4462715;32;33000;-84
2022/07/23 09:06:09;;;;;;;5.95;4.45;;;;;;;38.34;22.62;99702.19;4439896;32;30714;-84
2022/07/23 09:08:41;;;;;;;5.25;3.45;;;;;;;38.54;21.24;99706.34;4466409;32;31746;-84
2022/07/23 09:11:14;;;;;;;6.03;3.83;;;;;;;39.07;20.42;99699.38;4439858;32;33056;-84
2022/07/23 09:13:52;;;;;;;7.22;3.37;;;;;;;39.10;19.89;99701.66;4456461;32;31592;-84
2022/07/23 09:16:27;;;;;;;10.88;3.60;;;;;;;39.36;19.45;99700.03;4473442;31;33155;-84
2022/07/23 09:19:04;;;;;;;7.20;3.72;;;;;;;39.40;19.83;99704.81;4444796;32;33289;-84
2022/07/23 09:21:37;;;;;;;5.40;3.90;;;;;;;39.00;19.81;99702.34;4461841;32;32672;-84
2022/07/23 09:24:10;;;;;;;7.00;4.10;;;;;;;39.56;19.37;99693.94;4462855;32;33733;-84
2022/07/23 09:26:53;;;;;;;9.18;3.80;;;;;;;39.29;21.07;99696.66;4463571;32;31934;-84
2022/07/23 09:29:25;;;;;;;8.07;3.40;;;;;;;38.92;20.47;99695.34;4451977;32;32987;-84
2022/07/23 09:32:07;;;;;;;9.48;4.20;;;;;;;39.05;19.81;99698.81;4475974;31;33840;-84
2022/07/23 09:34:43;;;;;;;9.57;3.62;;;;;;;38.80;20.83;99700.16;4461722;32;34111;-84
2022/07/23 09:37:18;;;;;;;8.73;3.95;;;;;;;39.21;19.95;99692.41;4445941;32;33633;-84
2022/07/23 09:39:48;;;;;;;5.97;4.07;;;;;;;39.64;20.19;99699.00;4449980;32;33976;-84
2022/07/23 09:42:23;;;;;;;5.78;4.28;;;;;;;39.80;20.40;99695.31;4458184;32;33135;-84
2022/07/23 09:44:54;;;;;;;9.52;5.25;;;;;;;39.19;19.85;99689.06;4463388;32;33524;-83
2022/07/23 09:47:25;;;;;;;9.93;4.43;;;;;;;39.88;19.29;99683.81;4462812;32;34057;-84
2022/07/23 09:50:13;;;;;;;7.72;4.80;;;;;;;39.75;19.44;99687.00;4461071;32;33729;-84
2022/07/23 09:52:48;;;;;;;8.15;4.18;;;;;;;39.87;19.22;99678.50;4477070;31;33295;-84
2022/07/23 09:55:41;;;;;;;6.00;3.85;;;;;;;39.84;19.97;99674.38;4452766;32;32073;-84
2022/07/23 09:58:12;;;;;;;5.22;3.85;;;;;;;39.40;20.21;99684.62;4459537;32;32981;-84
2022/07/23 10:00:44;;;;;;;5.75;4.30;;;;;;;39.70;20.19;99675.88;4452972;32;33608;-84
2022/07/23 10:03:13;;;;;;;4.43;3.47;;;;;;;40.28;19.35;99670.59;4452581;32;33396;-84
2022/07/23 10:05:50;;;;;;;3.60;3.25;;;;;;;40.64;20.44;99671.69;4462649;31;32804;-84
2022/07/23 10:08:21;;;;;;;6.97;3.30;;;;;;;40.65;19.18;99674.22;4462881;32;33296;-84
2022/07/23 10:10:54;;;;;;;13.77;4.20;;;;;;;41.22;19.55;99664.25;4481896;31;31684;-84
2022/07/23 10:13:50;;;;;;;7.28;4.03;;;;;;;41.33;18.62;99652.09;4462535;32;33172;-84
2022/07/23 10:16:21;;;;;;;4.37;3.97;;;;;;;40.31;19.50;99667.28;4455031;32;32324;-84
2022/07/23 10:18:55;;;;;;;4.15;3.58;;;;;;;40.36;20.13;99661.81;4475964;31;33561;-84
2022/07/23 10:21:46;;;;;;;5.25;3.67;;;;;;;40.92;19.69;99662.16;4477992;31;33680;-84
2022/07/23 10:24:51;;;;;;;10.50;4.87;;;;;;;40.61;19.42;99647.34;4454390;32;32535;-84
2022/07/23 10:27:52;;;;;;;8.07;2.90;;;;;;;41.09;18.54;99656.44;4466928;32;33417;-84
2022/07/23 10:30:42;;;;;;;4.28;3.15;;;;;;;40.03;17.78;99649.91;4470117;32;33910;-84
2022/07/23 10:33:29;;;;;;;7.20;3.40;;;;;;;41.16;18.17;99640.38;4463479;32;33602;-84
2022/07/23 10:36:04;;;;;;;5.10;3.55;;;;;;;40.78;17.34;99659.03;4458766;32;32445;-84
2022/07/23 10:39:16;;;;;;;6.12;3.90;;;;;;;41.01;18.28;99645.88;4463140;32;33624;-84
2022/07/23 10:41:49;;;;;;;3.75;3.45;;;;;;;40.96;17.30;99643.09;4471314;31;34257;-85
2022/07/23 10:44:19;;;;;;;6.87;3.30;;;;;;;40.91;17.32;99639.16;4465841;32;32961;-84
2022/07/23 10:49:36;;;;;;;8.88;3.83;;;;;;;40.59;17.73;99635.69;4460847;32;32627;-84
2022/07/23 10:52:23;;;;;;;5.82;3.35;;;;;;;40.42;16.92;99631.12;4480032;31;34662;-84
2022/07/23 10:55:16;;;;;;;4.47;3.22;;;;;;;40.98;18.20;99627.06;4453461;32;32606;-84
2022/07/23 10:58:02;;;;;;;7.28;3.97;;;;;;;41.58;16.14;99608.94;4447612;32;30688;-84
2022/07/23 11:00:32;;;;;;;4.25;3.50;;;;;;;41.33;15.88;99616.06;4450637;32;32322;-85
2022/07/23 11:03:29;;;;;;;4.10;3.67;;;;;;;41.01;16.00;99610.72;4447908;32;34204;-84
2022/07/23 11:05:57;;;;;;;8.70;3.50;;;;;;;41.10;16.12;99614.63;4448235;32;33492;-85
2022/07/23 11:08:29;;;;;;;5.15;3.67;;;;;;;40.98;15.21;99604.91;4466113;32;33479;-85
2022/07/23 11:11:01;;;;;;;6.65;4.28;;;;;;;41.04;16.17;99614.88;4447303;32;31774;-84
2022/07/23 11:13:39;;;;;;;7.32;3.80;;;;;;;40.98;17.48;99604.91;4461789;32;34193;-84
2022/07/23 11:16:20;;;;;;;6.60;4.27;;;;;;;41.28;15.58;99604.16;4460469;32;33911;-85
2022/07/23 11:18:52;;;;;;;;;;;;;;;41.57;15.86;99601.72;4465012;32;34063;-85
2022/07/23 11:21:28;;;;;;;4.57;3.87;;;;;;;41.27;16.66;99602.50;4460993;32;33036;-85
2022/07/23 11:26:45;;;;;;;4.57;4.15;;;;;;;41.64;17.70;99591.19;4476533;31;34554;-85
2022/07/23 11:31:59;;;;;;;6.53;4.40;;;;;;;41.00;17.61;99591.59;4464276;32;33106;-85
2022/07/23 11:34:39;;;;;;;4.75;4.25;;;;;;;41.42;16.49;99597.81;4465009;32;33775;-85
2022/07/23 11:37:10;;;;;;;8.75;4.97;;;;;;;41.47;17.09;99587.84;4461301;32;33662;-85
2022/07/23 11:39:50;;;;;;;5.55;3.45;;;;;;;41.37;16.47;99591.44;4448541;32;33888;-85
2022/07/23 11:42:23;;;;;;;6.50;3.70;;;;;;;41.56;16.98;99575.94;4460877;32;33149;-85
2022/07/23 11:44:58;;;;;;;4.93;3.28;;;;;;;40.71;16.83;99586.50;4453088;32;34411;-85
2022/07/23 11:47:30;;;;;;;4.60;4.12;;;;;;;41.54;17.54;99571.78;4463264;32;33268;-85
2022/07/23 11:50:05;;;;;;;7.53;3.62;;;;;;;41.81;17.88;99566.81;4465280;32;33975;-85
2022/07/23 11:52:33;;;;;;;8.82;4.15;;;;;;;41.36;17.37;99562.06;4459764;32;33227;-85
2022/07/23 11:55:11;;;;;;;5.87;4.10;;;;;;;41.32;17.11;99564.53;4460365;32;33252;-85
2022/07/23 11:57:41;;;;;;;5.15;4.62;;;;;;;41.49;17.07;99560.69;4472440;31;33101;-85
2022/07/23 12:00:15;;;;;;;6.63;3.57;;;;;;;41.07;16.22;99553.38;4442636;32;34112;-85
2022/07/23 12:02:47;;;;;;;4.90;3.53;;;;;;;41.06;16.01;99551.72;4448682;32;32505;-85
2022/07/23 12:05:25;;;;;;;7.15;4.47;;;;;;;40.26;17.12;99554.66;4466442;32;32156;-85